sensor_id;sensor_type;location;lat;lon;timestamp;P1;durP1;ratioP1;P2;durP2;ratioP2
44694;SDS011;32845;59.422;17.930;2022-09-21T00:04:11;2.28;;;0.90;;
44694;SDS011;32845;59.422;17.930;2022-09-21T00:08:42;1.15;;;0.70;;
44694;SDS011;32845;59.422;17.930;2022-09-21T00:13:14;2.22;;;1.17;;
44694;SDS011;32845;59.422;17.930;2022-09-21T00:17:47;7.00;;;3.80;;
44694;SDS011;32845;59.422;17.930;2022-09-21T00:22:21;3.53;;;1.35;;
44694;SDS011;32845;59.422;17.930;2022-09-21T00:26:56;1.88;;;0.50;;
44694;SDS011;32845;59.422;17.930;2022-09-21T00:31:27;5.35;;;0.40;;
44694;SDS011;32845;59.422;17.930;2022-09-21T00:36:04;4.90;;;0.40;;
44694;SDS011;32845;59.422;17.930;2022-09-21T00:40:36;4.32;;;0.30;;
44694;SDS011;32845;59.422;17.930;2022-09-21T00:45:09;1.65;;;0.35;;
44694;SDS011;32845;59.422;17.930;2022-09-21T00:49:50;2.55;;;0.40;;
44694;SDS011;32845;59.422;17.930;2022-09-21T00:54:25;5.43;;;0.47;;
44694;SDS011;32845;59.422;17.930;2022-09-21T00:59:00;2.95;;;0.50;;
44694;SDS011;32845;59.422;17.930;2022-09-21T01:03:31;3.80;;;0.50;;
44694;SDS011;32845;59.422;17.930;2022-09-21T01:08:02;0.93;;;0.32;;
44694;SDS011;32845;59.422;17.930;2022-09-21T01:12:42;0.32;;;0.30;;
44694;SDS011;32845;59.422;17.930;2022-09-21T01:32:10;0.95;;;0.30;;
44694;SDS011;32845;59.422;17.930;2022-09-21T01:36:53;0.88;;;0.43;;
44694;SDS011;32845;59.422;17.930;2022-09-21T01:41:27;1.13;;;0.32;;
44694;SDS011;32845;59.422;17.930;2022-09-21T01:46:01;0.38;;;0.28;;
44694;SDS011;32845;59.422;17.930;2022-09-21T01:50:35;1.42;;;0.43;;
44694;SDS011;32845;59.422;17.930;2022-09-21T01:55:16;4.28;;;0.60;;
44694;SDS011;32845;59.422;17.930;2022-09-21T02:04:23;0.82;;;0.40;;
44694;SDS011;32845;59.422;17.930;2022-09-21T02:08:53;1.33;;;0.57;;
44694;SDS011;32845;59.422;17.930;2022-09-21T02:13:24;0.73;;;0.40;;
44694;SDS011;32845;59.422;17.930;2022-09-21T02:18:04;2.17;;;0.45;;
44694;SDS011;32845;59.422;17.930;2022-09-21T02:32:11;2.35;;;0.88;;
44694;SDS011;32845;59.422;17.930;2022-09-21T02:37:06;1.93;;;0.50;;
44694;SDS011;32845;59.422;17.930;2022-09-21T02:41:42;3.90;;;0.60;;
44694;SDS011;32845;59.422;17.930;2022-09-21T02:51:11;5.10;;;0.50;;
44694;SDS011;32845;59.422;17.930;2022-09-21T02:55:47;1.45;;;0.60;;
44694;SDS011;32845;59.422;17.930;2022-09-21T03:00:20;4.10;;;0.40;;
44694;SDS011;32845;59.422;17.930;2022-09-21T03:04:56;1.20;;;0.40;;
44694;SDS011;32845;59.422;17.930;2022-09-21T03:09:27;2.28;;;0.52;;
44694;SDS011;32845;59.422;17.930;2022-09-21T03:13:58;3.83;;;0.60;;
44694;SDS011;32845;59.422;17.930;2022-09-21T03:18:34;0.57;;;0.40;;
44694;SDS011;32845;59.422;17.930;2022-09-21T03:23:05;1.23;;;0.50;;
44694;SDS011;32845;59.422;17.930;2022-09-21T03:27:36;2.88;;;0.50;;
44694;SDS011;32845;59.422;17.930;2022-09-21T03:32:06;1.55;;;0.60;;
44694;SDS011;32845;59.422;17.930;2022-09-21T03:36:42;1.65;;;0.60;;
44694;SDS011;32845;59.422;17.930;2022-09-21T03:41:13;3.80;;;0.52;;
44694;SDS011;32845;59.422;17.930;2022-09-21T03:45:44;4.55;;;0.70;;
44694;SDS011;32845;59.422;17.930;2022-09-21T03:50:16;1.48;;;0.50;;
44694;SDS011;32845;59.422;17.930;2022-09-21T03:54:46;0.93;;;0.70;;
44694;SDS011;32845;59.422;17.930;2022-09-21T03:59:17;1.40;;;0.50;;
44694;SDS011;32845;59.422;17.930;2022-09-21T04:03:48;2.80;;;0.65;;
44694;SDS011;32845;59.422;17.930;2022-09-21T04:08:18;2.17;;;0.70;;
44694;SDS011;32845;59.422;17.930;2022-09-21T04:12:49;5.22;;;0.75;;
44694;SDS011;32845;59.422;17.930;2022-09-21T04:17:20;8.10;;;0.40;;
44694;SDS011;32845;59.422;17.930;2022-09-21T04:21:50;5.53;;;0.68;;
44694;SDS011;32845;59.422;17.930;2022-09-21T04:26:23;3.85;;;1.00;;
44694;SDS011;32845;59.422;17.930;2022-09-21T04:30:56;2.70;;;1.30;;
44694;SDS011;32845;59.422;17.930;2022-09-21T04:35:26;5.43;;;0.80;;
44694;SDS011;32845;59.422;17.930;2022-09-21T04:39:57;2.78;;;0.80;;
44694;SDS011;32845;59.422;17.930;2022-09-21T04:44:33;2.15;;;0.77;;
44694;SDS011;32845;59.422;17.930;2022-09-21T04:49:03;4.05;;;0.65;;
44694;SDS011;32845;59.422;17.930;2022-09-21T04:53:34;4.53;;;0.80;;
44694;SDS011;32845;59.422;17.930;2022-09-21T04:58:07;1.17;;;0.60;;
44694;SDS011;32845;59.422;17.930;2022-09-21T05:02:37;3.60;;;0.60;;
44694;SDS011;32845;59.422;17.930;2022-09-21T05:07:08;0.80;;;0.60;;
44694;SDS011;32845;59.422;17.930;2022-09-21T05:11:39;8.90;;;1.60;;
44694;SDS011;32845;59.422;17.930;2022-09-21T05:16:10;5.93;;;1.15;;
44694;SDS011;32845;59.422;17.930;2022-09-21T05:20:41;3.95;;;1.70;;
44694;SDS011;32845;59.422;17.930;2022-09-21T05:25:11;6.05;;;1.83;;
44694;SDS011;32845;59.422;17.930;2022-09-21T05:29:42;4.13;;;2.10;;
44694;SDS011;32845;59.422;17.930;2022-09-21T05:39:05;5.35;;;1.83;;
44694;SDS011;32845;59.422;17.930;2022-09-21T05:43:37;3.53;;;1.33;;
44694;SDS011;32845;59.422;17.930;2022-09-21T05:52:48;3.17;;;1.00;;
44694;SDS011;32845;59.422;17.930;2022-09-21T05:57:29;5.13;;;0.90;;
44694;SDS011;32845;59.422;17.930;2022-09-21T06:06:54;2.55;;;1.27;;
44694;SDS011;32845;59.422;17.930;2022-09-21T06:11:24;3.65;;;1.10;;
44694;SDS011;32845;59.422;17.930;2022-09-21T06:16:00;3.30;;;1.20;;
44694;SDS011;32845;59.422;17.930;2022-09-21T06:20:32;3.53;;;1.33;;
44694;SDS011;32845;59.422;17.930;2022-09-21T06:25:03;2.05;;;0.90;;
44694;SDS011;32845;59.422;17.930;2022-09-21T06:29:34;7.50;;;1.00;;
44694;SDS011;32845;59.422;17.930;2022-09-21T06:34:05;2.53;;;0.75;;
44694;SDS011;32845;59.422;17.930;2022-09-21T06:38:40;1.17;;;0.60;;
44694;SDS011;32845;59.422;17.930;2022-09-21T06:43:11;2.00;;;0.60;;
44694;SDS011;32845;59.422;17.930;2022-09-21T06:47:45;2.60;;;0.32;;
44694;SDS011;32845;59.422;17.930;2022-09-21T06:52:17;3.38;;;1.08;;
44694;SDS011;32845;59.422;17.930;2022-09-21T06:56:47;5.03;;;0.77;;
44694;SDS011;32845;59.422;17.930;2022-09-21T07:01:18;3.88;;;0.73;;
44694;SDS011;32845;59.422;17.930;2022-09-21T07:05:49;5.72;;;0.70;;
44694;SDS011;32845;59.422;17.930;2022-09-21T07:10:20;6.22;;;0.50;;
44694;SDS011;32845;59.422;17.930;2022-09-21T07:14:51;10.98;;;0.65;;
44694;SDS011;32845;59.422;17.930;2022-09-21T07:19:21;4.18;;;0.50;;
44694;SDS011;32845;59.422;17.930;2022-09-21T07:23:52;2.53;;;0.52;;
44694;SDS011;32845;59.422;17.930;2022-09-21T07:28:23;6.18;;;0.70;;
44694;SDS011;32845;59.422;17.930;2022-09-21T07:32:53;1.67;;;0.55;;
44694;SDS011;32845;59.422;17.930;2022-09-21T07:37:24;2.13;;;0.63;;
44694;SDS011;32845;59.422;17.930;2022-09-21T07:41:56;3.35;;;0.45;;
44694;SDS011;32845;59.422;17.930;2022-09-21T07:46:27;5.63;;;0.95;;
44694;SDS011;32845;59.422;17.930;2022-09-21T07:51:02;3.63;;;0.52;;
44694;SDS011;32845;59.422;17.930;2022-09-21T07:55:36;6.30;;;1.77;;
44694;SDS011;32845;59.422;17.930;2022-09-21T08:00:07;3.53;;;0.55;;
44694;SDS011;32845;59.422;17.930;2022-09-21T08:04:39;2.90;;;0.70;;
44694;SDS011;32845;59.422;17.930;2022-09-21T08:09:09;2.20;;;0.38;;
44694;SDS011;32845;59.422;17.930;2022-09-21T08:13:40;3.50;;;0.40;;
44694;SDS011;32845;59.422;17.930;2022-09-21T08:18:11;2.05;;;0.30;;
44694;SDS011;32845;59.422;17.930;2022-09-21T08:22:41;1.27;;;0.30;;
44694;SDS011;32845;59.422;17.930;2022-09-21T08:27:12;1.13;;;0.20;;
44694;SDS011;32845;59.422;17.930;2022-09-21T08:31:43;0.93;;;0.40;;
44694;SDS011;32845;59.422;17.930;2022-09-21T08:36:20;4.72;;;0.38;;
44694;SDS011;32845;59.422;17.930;2022-09-21T08:40:51;1.58;;;0.30;;
44694;SDS011;32845;59.422;17.930;2022-09-21T08:45:24;2.45;;;0.40;;
44694;SDS011;32845;59.422;17.930;2022-09-21T08:50:01;0.65;;;0.28;;
44694;SDS011;32845;59.422;17.930;2022-09-21T08:54:46;2.05;;;0.20;;
44694;SDS011;32845;59.422;17.930;2022-09-21T08:59:28;0.55;;;0.20;;
44694;SDS011;32845;59.422;17.930;2022-09-21T09:14:21;1.77;;;0.60;;
44694;SDS011;32845;59.422;17.930;2022-09-21T09:24:16;4.72;;;0.30;;
44694;SDS011;32845;59.422;17.930;2022-09-21T09:29:51;0.98;;;0.20;;
44694;SDS011;32845;59.422;17.930;2022-09-21T09:34:34;2.22;;;0.30;;
44694;SDS011;32845;59.422;17.930;2022-09-21T09:39:09;0.73;;;0.30;;
44694;SDS011;32845;59.422;17.930;2022-09-21T09:43:58;0.88;;;0.25;;
44694;SDS011;32845;59.422;17.930;2022-09-21T09:49:09;1.65;;;0.32;;
44694;SDS011;32845;59.422;17.930;2022-09-21T09:53:45;2.22;;;0.20;;
44694;SDS011;32845;59.422;17.930;2022-09-21T09:58:31;1.92;;;0.30;;
44694;SDS011;32845;59.422;17.930;2022-09-21T10:03:14;0.77;;;0.22;;
44694;SDS011;32845;59.422;17.930;2022-09-21T10:07:47;0.57;;;0.20;;
44694;SDS011;32845;59.422;17.930;2022-09-21T10:12:23;0.82;;;0.40;;
44694;SDS011;32845;59.422;17.930;2022-09-21T10:16:56;0.30;;;0.10;;
44694;SDS011;32845;59.422;17.930;2022-09-21T10:21:45;1.77;;;0.30;;
44694;SDS011;32845;59.422;17.930;2022-09-21T10:26:16;0.40;;;0.10;;
44694;SDS011;32845;59.422;17.930;2022-09-21T10:30:48;2.65;;;0.20;;
44694;SDS011;32845;59.422;17.930;2022-09-21T10:35:19;0.20;;;0.10;;
44694;SDS011;32845;59.422;17.930;2022-09-21T10:39:50;0.65;;;0.15;;
44694;SDS011;32845;59.422;17.930;2022-09-21T10:44:22;0.60;;;0.20;;
44694;SDS011;32845;59.422;17.930;2022-09-21T10:49:04;1.17;;;0.20;;
44694;SDS011;32845;59.422;17.930;2022-09-21T10:53:57;0.30;;;0.20;;
44694;SDS011;32845;59.422;17.930;2022-09-21T10:58:29;0.28;;;0.10;;
44694;SDS011;32845;59.422;17.930;2022-09-21T11:03:02;1.13;;;0.20;;
44694;SDS011;32845;59.422;17.930;2022-09-21T11:18:07;0.43;;;0.30;;
44694;SDS011;32845;59.422;17.930;2022-09-21T11:22:59;0.73;;;0.20;;
44694;SDS011;32845;59.422;17.930;2022-09-21T11:27:40;1.00;;;0.30;;
44694;SDS011;32845;59.422;17.930;2022-09-21T11:41:39;0.95;;;0.30;;
44694;SDS011;32845;59.422;17.930;2022-09-21T12:01:17;0.30;;;0.20;;
44694;SDS011;32845;59.422;17.930;2022-09-21T12:15:38;0.45;;;0.28;;
44694;SDS011;32845;59.422;17.930;2022-09-21T12:30:17;0.32;;;0.10;;
44694;SDS011;32845;59.422;17.930;2022-09-21T12:34:54;0.90;;;0.40;;
44694;SDS011;32845;59.422;17.930;2022-09-21T12:39:53;0.30;;;0.20;;
44694;SDS011;32845;59.422;17.930;2022-09-21T12:44:48;0.57;;;0.28;;
44694;SDS011;32845;59.422;17.930;2022-09-21T12:49:25;1.38;;;0.20;;
44694;SDS011;32845;59.422;17.930;2022-09-21T12:54:04;1.05;;;0.20;;
44694;SDS011;32845;59.422;17.930;2022-09-21T13:03:20;3.03;;;0.20;;
44694;SDS011;32845;59.422;17.930;2022-09-21T13:08:10;0.30;;;0.30;;
44694;SDS011;32845;59.422;17.930;2022-09-21T13:12:44;0.50;;;0.20;;
44694;SDS011;32845;59.422;17.930;2022-09-21T13:17:31;1.73;;;0.40;;
44694;SDS011;32845;59.422;17.930;2022-09-21T13:26:55;2.95;;;0.28;;
44694;SDS011;32845;59.422;17.930;2022-09-21T13:31:38;0.85;;;0.25;;
44694;SDS011;32845;59.422;17.930;2022-09-21T13:45:53;2.08;;;0.77;;
44694;SDS011;32845;59.422;17.930;2022-09-21T13:50:30;2.10;;;0.70;;
44694;SDS011;32845;59.422;17.930;2022-09-21T14:00:07;2.13;;;0.52;;
44694;SDS011;32845;59.422;17.930;2022-09-21T14:04:41;0.68;;;0.40;;
44694;SDS011;32845;59.422;17.930;2022-09-21T14:18:36;0.52;;;0.20;;
44694;SDS011;32845;59.422;17.930;2022-09-21T14:28:02;1.00;;;0.40;;
44694;SDS011;32845;59.422;17.930;2022-09-21T14:32:47;3.72;;;0.20;;
44694;SDS011;32845;59.422;17.930;2022-09-21T14:42:12;1.08;;;0.30;;
44694;SDS011;32845;59.422;17.930;2022-09-21T14:46:51;1.25;;;0.10;;
44694;SDS011;32845;59.422;17.930;2022-09-21T14:56:22;1.40;;;0.20;;
44694;SDS011;32845;59.422;17.930;2022-09-21T15:06:18;3.17;;;0.52;;
44694;SDS011;32845;59.422;17.930;2022-09-21T15:11:27;1.88;;;0.20;;
44694;SDS011;32845;59.422;17.930;2022-09-21T15:16:13;0.20;;;0.13;;
44694;SDS011;32845;59.422;17.930;2022-09-21T15:20:57;2.35;;;0.25;;
44694;SDS011;32845;59.422;17.930;2022-09-21T15:25:37;1.73;;;0.30;;
44694;SDS011;32845;59.422;17.930;2022-09-21T15:30:21;1.23;;;0.20;;
44694;SDS011;32845;59.422;17.930;2022-09-21T15:35:02;0.82;;;0.20;;
44694;SDS011;32845;59.422;17.930;2022-09-21T15:39:35;1.23;;;0.40;;
44694;SDS011;32845;59.422;17.930;2022-09-21T15:44:14;4.55;;;0.50;;
44694;SDS011;32845;59.422;17.930;2022-09-21T15:48:51;1.33;;;0.38;;
44694;SDS011;32845;59.422;17.930;2022-09-21T15:53:26;2.38;;;0.30;;
44694;SDS011;32845;59.422;17.930;2022-09-21T15:58:00;2.90;;;0.60;;
44694;SDS011;32845;59.422;17.930;2022-09-21T16:02:35;2.25;;;0.40;;
44694;SDS011;32845;59.422;17.930;2022-09-21T16:11:57;1.63;;;0.30;;
44694;SDS011;32845;59.422;17.930;2022-09-21T16:16:28;1.08;;;0.20;;
44694;SDS011;32845;59.422;17.930;2022-09-21T16:21:01;0.17;;;0.17;;
44694;SDS011;32845;59.422;17.930;2022-09-21T16:25:38;1.85;;;0.30;;
44694;SDS011;32845;59.422;17.930;2022-09-21T16:30:15;0.90;;;0.30;;
44694;SDS011;32845;59.422;17.930;2022-09-21T16:35:25;1.13;;;0.50;;
44694;SDS011;32845;59.422;17.930;2022-09-21T16:40:00;1.73;;;0.60;;
44694;SDS011;32845;59.422;17.930;2022-09-21T16:44:31;0.85;;;0.50;;
44694;SDS011;32845;59.422;17.930;2022-09-21T16:49:14;1.38;;;0.60;;
44694;SDS011;32845;59.422;17.930;2022-09-21T16:53:50;1.77;;;1.00;;
44694;SDS011;32845;59.422;17.930;2022-09-21T16:58:32;1.08;;;0.60;;
44694;SDS011;32845;59.422;17.930;2022-09-21T17:03:02;1.83;;;0.90;;
44694;SDS011;32845;59.422;17.930;2022-09-21T17:07:33;5.00;;;1.08;;
44694;SDS011;32845;59.422;17.930;2022-09-21T17:12:08;2.08;;;1.10;;
44694;SDS011;32845;59.422;17.930;2022-09-21T17:16:42;4.50;;;2.00;;
44694;SDS011;32845;59.422;17.930;2022-09-21T17:21:20;3.85;;;1.60;;
44694;SDS011;32845;59.422;17.930;2022-09-21T17:25:53;3.45;;;1.50;;
44694;SDS011;32845;59.422;17.930;2022-09-21T17:30:24;5.65;;;1.40;;
44694;SDS011;32845;59.422;17.930;2022-09-21T17:39:39;5.07;;;1.20;;
44694;SDS011;32845;59.422;17.930;2022-09-21T17:44:15;7.90;;;1.52;;
44694;SDS011;32845;59.422;17.930;2022-09-21T17:48:52;6.68;;;1.50;;
44694;SDS011;32845;59.422;17.930;2022-09-21T17:53:23;10.77;;;2.03;;
44694;SDS011;32845;59.422;17.930;2022-09-21T18:02:53;12.25;;;1.63;;
44694;SDS011;32845;59.422;17.930;2022-09-21T18:07:24;5.93;;;2.25;;
44694;SDS011;32845;59.422;17.930;2022-09-21T18:16:59;12.07;;;2.35;;
44694;SDS011;32845;59.422;17.930;2022-09-21T18:21:41;5.13;;;1.95;;
44694;SDS011;32845;59.422;17.930;2022-09-21T18:26:14;3.95;;;1.70;;
44694;SDS011;32845;59.422;17.930;2022-09-21T18:30:48;4.93;;;1.65;;
44694;SDS011;32845;59.422;17.930;2022-09-21T18:45:34;4.55;;;1.98;;
44694;SDS011;32845;59.422;17.930;2022-09-21T18:55:25;5.60;;;2.95;;
44694;SDS011;32845;59.422;17.930;2022-09-21T18:59:58;6.85;;;3.38;;
44694;SDS011;32845;59.422;17.930;2022-09-21T19:04:29;6.25;;;2.13;;
44694;SDS011;32845;59.422;17.930;2022-09-21T19:28:41;4.78;;;2.40;;
44694;SDS011;32845;59.422;17.930;2022-09-21T19:33:20;8.02;;;2.50;;
44694;SDS011;32845;59.422;17.930;2022-09-21T19:38:02;3.72;;;2.33;;
44694;SDS011;32845;59.422;17.930;2022-09-21T19:47:26;4.65;;;1.75;;
44694;SDS011;32845;59.422;17.930;2022-09-21T19:52:04;2.67;;;1.58;;
44694;SDS011;32845;59.422;17.930;2022-09-21T19:56:35;8.27;;;1.92;;
44694;SDS011;32845;59.422;17.930;2022-09-21T20:01:33;9.07;;;1.70;;
44694;SDS011;32845;59.422;17.930;2022-09-21T20:06:12;3.95;;;1.80;;
44694;SDS011;32845;59.422;17.930;2022-09-21T20:15:37;7.97;;;2.08;;
44694;SDS011;32845;59.422;17.930;2022-09-21T20:20:22;6.47;;;2.25;;
44694;SDS011;32845;59.422;17.930;2022-09-21T20:24:57;5.60;;;2.53;;
44694;SDS011;32845;59.422;17.930;2022-09-21T20:29:32;4.18;;;2.33;;
44694;SDS011;32845;59.422;17.930;2022-09-21T20:34:02;5.00;;;1.80;;
44694;SDS011;32845;59.422;17.930;2022-09-21T20:38:33;3.78;;;1.95;;
44694;SDS011;32845;59.422;17.930;2022-09-21T20:43:05;4.70;;;2.67;;
44694;SDS011;32845;59.422;17.930;2022-09-21T20:47:42;5.18;;;2.42;;
44694;SDS011;32845;59.422;17.930;2022-09-21T20:52:13;4.85;;;2.60;;
44694;SDS011;32845;59.422;17.930;2022-09-21T20:56:45;4.22;;;2.55;;
44694;SDS011;32845;59.422;17.930;2022-09-21T21:01:16;5.10;;;3.13;;
44694;SDS011;32845;59.422;17.930;2022-09-21T21:05:47;10.63;;;3.35;;
44694;SDS011;32845;59.422;17.930;2022-09-21T21:10:17;3.85;;;2.40;;
44694;SDS011;32845;59.422;17.930;2022-09-21T21:14:48;7.82;;;3.08;;
44694;SDS011;32845;59.422;17.930;2022-09-21T21:19:19;5.38;;;2.30;;
44694;SDS011;32845;59.422;17.930;2022-09-21T21:23:50;3.55;;;1.95;;
44694;SDS011;32845;59.422;17.930;2022-09-21T21:33:10;5.32;;;2.40;;
44694;SDS011;32845;59.422;17.930;2022-09-21T21:37:41;8.82;;;2.45;;
44694;SDS011;32845;59.422;17.930;2022-09-21T21:42:11;7.05;;;2.22;;
44694;SDS011;32845;59.422;17.930;2022-09-21T21:46:42;4.93;;;2.33;;
44694;SDS011;32845;59.422;17.930;2022-09-21T21:51:13;6.47;;;2.50;;
44694;SDS011;32845;59.422;17.930;2022-09-21T21:55:44;4.68;;;2.25;;
44694;SDS011;32845;59.422;17.930;2022-09-21T22:00:14;4.47;;;2.00;;
44694;SDS011;32845;59.422;17.930;2022-09-21T22:04:45;3.13;;;1.50;;
44694;SDS011;32845;59.422;17.930;2022-09-21T22:09:16;4.00;;;2.05;;
44694;SDS011;32845;59.422;17.930;2022-09-21T22:13:48;7.53;;;1.90;;
44694;SDS011;32845;59.422;17.930;2022-09-21T22:18:19;2.90;;;1.50;;
44694;SDS011;32845;59.422;17.930;2022-09-21T22:22:50;3.67;;;1.70;;
44694;SDS011;32845;59.422;17.930;2022-09-21T22:27:20;5.90;;;1.70;;
44694;SDS011;32845;59.422;17.930;2022-09-21T22:31:51;3.53;;;1.52;;
44694;SDS011;32845;59.422;17.930;2022-09-21T22:36:27;3.70;;;1.70;;
44694;SDS011;32845;59.422;17.930;2022-09-21T22:41:01;3.80;;;1.73;;
44694;SDS011;32845;59.422;17.930;2022-09-21T22:45:33;4.82;;;1.35;;
44694;SDS011;32845;59.422;17.930;2022-09-21T22:50:03;4.32;;;1.67;;
44694;SDS011;32845;59.422;17.930;2022-09-21T22:54:34;3.15;;;1.60;;
44694;SDS011;32845;59.422;17.930;2022-09-21T22:59:05;2.90;;;1.50;;
44694;SDS011;32845;59.422;17.930;2022-09-21T23:03:36;3.92;;;1.30;;
44694;SDS011;32845;59.422;17.930;2022-09-21T23:08:08;8.27;;;1.90;;
44694;SDS011;32845;59.422;17.930;2022-09-21T23:12:39;1.98;;;1.30;;
44694;SDS011;32845;59.422;17.930;2022-09-21T23:17:10;3.38;;;1.30;;
44694;SDS011;32845;59.422;17.930;2022-09-21T23:21:41;1.73;;;0.90;;
44694;SDS011;32845;59.422;17.930;2022-09-21T23:30:44;3.75;;;1.35;;
44694;SDS011;32845;59.422;17.930;2022-09-21T23:35:15;3.28;;;1.30;;
44694;SDS011;32845;59.422;17.930;2022-09-21T23:39:46;3.72;;;1.50;;
44694;SDS011;32845;59.422;17.930;2022-09-21T23:44:17;3.70;;;1.45;;
44694;SDS011;32845;59.422;17.930;2022-09-21T23:48:48;4.75;;;1.40;;
44694;SDS011;32845;59.422;17.930;2022-09-21T23:53:19;3.15;;;1.50;;
44694;SDS011;32845;59.422;17.930;2022-09-21T23:57:51;1.75;;;1.33;;
